createdAt,value
2023-02-18T00:00:35.738Z,5.98
2023-02-18T00:03:03.342Z,5.98
2023-02-18T00:05:31.247Z,5.98
2023-02-18T00:07:58.852Z,6.00
2023-02-18T00:10:26.558Z,6.01
2023-02-18T00:12:54.146Z,5.99
2023-02-18T00:15:23.072Z,5.98
2023-02-18T00:17:50.685Z,5.96
2023-02-18T00:20:18.616Z,5.96
2023-02-18T00:22:46.178Z,5.94
2023-02-18T00:25:13.787Z,5.93
2023-02-18T00:27:41.356Z,5.92
2023-02-18T00:30:09.866Z,5.92
2023-02-18T00:32:38.933Z,5.89
2023-02-18T00:35:07.046Z,5.88
2023-02-18T00:37:35.537Z,5.87
2023-02-18T00:40:03.190Z,5.88
2023-02-18T00:42:30.778Z,5.86
2023-02-18T00:44:58.405Z,5.88
2023-02-18T00:47:26.573Z,5.86
2023-02-18T00:49:55.704Z,5.84
2023-02-18T00:52:23.323Z,5.88
2023-02-18T00:54:51.690Z,5.86
2023-02-18T00:57:19.336Z,5.87
2023-02-18T00:59:47.206Z,5.85
2023-02-18T01:02:14.798Z,5.90
2023-02-18T01:04:42.404Z,5.91
2023-02-18T01:07:11.940Z,5.92
2023-02-18T01:09:40.656Z,5.94
2023-02-18T01:12:08.543Z,5.96
2023-02-18T01:14:36.172Z,5.95
2023-02-18T01:17:03.755Z,5.96
2023-02-18T01:19:31.437Z,5.95
2023-02-18T01:21:59.045Z,5.95
2023-02-18T01:24:28.214Z,5.97
2023-02-18T01:26:55.829Z,5.95
2023-02-18T01:29:23.748Z,5.96
2023-02-18T01:31:51.988Z,5.94
2023-02-18T01:34:19.668Z,5.95
2023-02-18T01:36:47.261Z,5.93
2023-02-18T01:39:14.956Z,5.94
2023-02-18T01:41:44.078Z,5.93
2023-02-18T01:44:14.013Z,5.92
2023-02-18T01:46:41.908Z,5.92
2023-02-18T01:49:11.195Z,5.92
2023-02-18T01:51:42.415Z,5.91
2023-02-18T01:54:13.211Z,5.88
2023-02-18T01:56:43.512Z,5.90
2023-02-18T01:59:16.845Z,5.91
2023-02-18T02:01:46.752Z,5.92
2023-02-18T02:04:14.802Z,5.92
2023-02-18T02:06:42.473Z,5.94
2023-02-18T02:09:13.886Z,5.94
2023-02-18T02:12:10.310Z,5.95
2023-02-18T02:14:52.424Z,5.93
2023-02-18T02:17:29.502Z,5.94
2023-02-18T02:20:39.906Z,5.94
2023-02-18T02:23:43.095Z,5.92
2023-02-18T02:26:29.583Z,5.92
2023-02-18T02:29:20.051Z,5.92
2023-02-18T02:32:09.441Z,5.90
2023-02-18T02:34:51.633Z,5.88
2023-02-18T02:37:26.924Z,5.87
2023-02-18T02:40:05.151Z,5.85
2023-02-18T02:42:46.317Z,5.84
2023-02-18T02:45:22.659Z,5.84
2023-02-18T02:47:56.216Z,5.80
2023-02-18T02:50:35.793Z,5.80
2023-02-18T02:53:08.398Z,5.78
2023-02-18T02:55:36.054Z,5.76
2023-02-18T02:58:03.659Z,5.73
2023-02-18T03:00:42.727Z,5.70
2023-02-18T03:03:54.998Z,5.66
2023-02-18T03:06:40.765Z,5.64
2023-02-18T03:09:16.320Z,5.65
2023-02-18T03:11:53.193Z,5.64
2023-02-18T03:14:28.494Z,5.64
2023-02-18T03:17:02.937Z,5.65
2023-02-18T03:19:35.149Z,5.65
2023-02-18T03:22:08.400Z,5.68
2023-02-18T03:24:40.219Z,5.68
2023-02-18T03:27:13.377Z,5.70
2023-02-18T03:29:43.026Z,5.72
2023-02-18T03:32:14.155Z,5.74
2023-02-18T03:34:45.404Z,5.75
2023-02-18T03:37:16.025Z,5.77
2023-02-18T03:39:47.419Z,5.77
2023-02-18T03:42:15.148Z,5.77
2023-02-18T03:44:42.753Z,5.77
2023-02-18T03:47:10.393Z,5.81
2023-02-18T03:49:38.138Z,5.79
2023-02-18T03:52:06.170Z,5.82
2023-02-18T03:54:35.100Z,5.83
2023-02-18T03:57:02.731Z,5.84
2023-02-18T03:59:30.419Z,5.86
2023-02-18T04:01:57.979Z,5.87
2023-02-18T04:04:25.715Z,5.87
2023-02-18T04:06:53.325Z,5.90
2023-02-18T04:09:21.021Z,5.90
2023-02-18T04:11:50.212Z,5.89
2023-02-18T04:14:17.938Z,5.90
2023-02-18T04:16:45.576Z,5.93
2023-02-18T04:19:13.203Z,5.95
2023-02-18T04:21:40.827Z,5.96
2023-02-18T04:24:08.509Z,5.97
2023-02-18T04:26:36.295Z,5.98
2023-02-18T04:29:05.286Z,5.99
2023-02-18T04:31:32.999Z,5.98
2023-02-18T04:34:00.619Z,5.99
2023-02-18T04:36:28.664Z,6.01
2023-02-18T04:38:56.273Z,6.03
2023-02-18T04:41:23.971Z,6.02
2023-02-18T04:43:51.623Z,6.01
2023-02-18T04:46:21.059Z,6.03
2023-02-18T04:48:48.711Z,6.04
2023-02-18T04:51:16.358Z,6.02
2023-02-18T04:53:44.110Z,6.01
2023-02-18T04:56:11.677Z,5.98
2023-02-18T04:58:39.396Z,6.00
2023-02-18T05:01:07.847Z,6.00
2023-02-18T05:03:36.803Z,5.96
2023-02-18T05:06:05.028Z,5.98
2023-02-18T05:08:32.611Z,5.99
2023-02-18T05:11:00.197Z,5.97
2023-02-18T05:13:27.842Z,5.98
2023-02-18T05:15:55.452Z,5.96
2023-02-18T05:18:23.481Z,5.98
2023-02-18T05:20:52.435Z,5.97
2023-02-18T05:23:21.336Z,5.97
2023-02-18T05:25:49.019Z,5.98
2023-02-18T05:28:17.957Z,6.00
2023-02-18T05:30:45.559Z,6.00
2023-02-18T05:33:13.923Z,6.02
2023-02-18T05:35:41.556Z,6.04
2023-02-18T05:38:11.415Z,6.06
2023-02-18T05:40:39.102Z,6.10
2023-02-18T05:43:06.685Z,6.09
2023-02-18T05:45:33.692Z,6.10
2023-02-18T05:48:01.352Z,6.16
2023-02-18T05:50:29.195Z,6.17
2023-02-18T05:52:57.216Z,6.17
2023-02-18T05:55:26.287Z,6.20
2023-02-18T05:57:54.140Z,6.18
2023-02-18T06:00:22.327Z,6.15
2023-02-18T06:02:49.954Z,6.11
2023-02-18T06:05:17.738Z,6.09
2023-02-18T06:07:45.654Z,6.04
2023-02-18T06:10:13.302Z,6.01
2023-02-18T06:12:42.732Z,6.01
2023-02-18T06:15:10.773Z,6.00
2023-02-18T06:17:38.412Z,5.97
2023-02-18T06:20:07.261Z,5.93
2023-02-18T06:22:35.260Z,5.91
2023-02-18T06:25:02.988Z,5.89
2023-02-18T06:27:30.606Z,5.86
2023-02-18T06:29:59.946Z,5.86
2023-02-18T06:32:27.854Z,5.89
2023-02-18T06:34:55.507Z,5.88
2023-02-18T06:37:23.364Z,5.90
2023-02-18T06:39:50.961Z,5.88
2023-02-18T06:42:18.629Z,5.89
2023-02-18T06:44:46.274Z,5.87
2023-02-18T06:47:15.701Z,5.86
2023-02-18T06:49:43.400Z,5.84
2023-02-18T06:52:11.057Z,5.82
2023-02-18T06:54:38.812Z,5.80
2023-02-18T06:57:06.514Z,5.75
2023-02-18T06:59:34.076Z,5.75
2023-02-18T07:02:01.731Z,5.73
2023-02-18T07:04:30.704Z,5.69
2023-02-18T07:06:58.338Z,5.71
2023-02-18T07:09:25.997Z,5.71
2023-02-18T07:11:53.630Z,5.68
2023-02-18T07:14:21.243Z,5.68
2023-02-18T07:16:48.943Z,5.60
2023-02-18T07:19:16.980Z,5.63
2023-02-18T07:21:45.938Z,5.54
2023-02-18T07:24:13.767Z,5.52
2023-02-18T07:26:41.534Z,5.52
2023-02-18T07:29:09.142Z,5.55
2023-02-18T07:31:38.359Z,5.54
2023-02-18T07:34:06.015Z,5.50
2023-02-18T07:36:33.628Z,5.51
2023-02-18T07:39:02.923Z,5.50
2023-02-18T07:41:30.653Z,5.55
2023-02-18T07:43:58.244Z,5.59
2023-02-18T07:46:25.936Z,5.61
2023-02-18T07:48:53.548Z,5.67
2023-02-18T07:51:21.150Z,5.70
2023-02-18T07:53:48.798Z,5.73
2023-02-18T07:56:18.487Z,5.84
2023-02-18T07:58:46.103Z,5.78
2023-02-18T08:01:15.858Z,5.80
2023-02-18T08:03:44.114Z,5.84
2023-02-18T08:06:21.249Z,5.89
2023-02-18T08:08:48.991Z,5.92
2023-02-18T08:11:19.647Z,5.98
2023-02-18T08:13:47.632Z,6.06
2023-02-18T08:16:15.722Z,6.09
2023-02-18T08:18:43.573Z,6.11
2023-02-18T08:21:11.804Z,6.12
2023-02-18T08:23:39.404Z,6.20
2023-02-18T08:26:07.311Z,6.26
2023-02-18T08:28:36.676Z,6.35
2023-02-18T08:31:04.745Z,6.39
2023-02-18T08:33:32.532Z,6.41
2023-02-18T08:36:00.302Z,6.41
2023-02-18T08:38:28.031Z,6.45
2023-02-18T08:41:03.825Z,6.56
2023-02-18T08:43:31.989Z,6.62
2023-02-18T08:46:01.312Z,6.71
2023-02-18T08:48:30.465Z,6.70
2023-02-18T08:50:58.361Z,6.72
2023-02-18T08:53:26.162Z,6.62
2023-02-18T08:55:53.797Z,6.54
2023-02-18T08:58:21.423Z,6.52
2023-02-18T09:00:49.111Z,6.47
2023-02-18T09:03:18.059Z,6.44
2023-02-18T09:05:45.646Z,6.39
2023-02-18T09:08:13.291Z,6.33
2023-02-18T09:10:40.908Z,6.26
2023-02-18T09:13:08.552Z,6.23
2023-02-18T09:15:36.183Z,6.22
2023-02-18T09:18:03.890Z,6.23
2023-02-18T09:20:32.840Z,6.19
2023-02-18T09:23:01.639Z,6.19
2023-02-18T09:25:29.213Z,6.21
2023-02-18T09:27:56.877Z,6.19
2023-02-18T09:30:24.538Z,6.20
2023-02-18T09:32:52.160Z,6.20
2023-02-18T09:35:20.414Z,6.29
2023-02-18T09:37:49.721Z,6.33
2023-02-18T09:40:27.298Z,6.35
2023-02-18T09:42:57.405Z,6.35
2023-02-18T09:45:25.637Z,6.34
2023-02-18T09:47:53.455Z,6.40
2023-02-18T09:50:23.902Z,6.39
2023-02-18T09:52:54.133Z,6.41
2023-02-18T09:55:24.425Z,6.53
2023-02-18T09:57:54.331Z,6.60
2023-02-18T10:00:26.085Z,6.73
2023-02-18T10:02:57.676Z,6.90
2023-02-18T10:05:27.429Z,6.88
2023-02-18T10:08:00.985Z,6.95
2023-02-18T10:10:37.644Z,7.03
2023-02-18T10:13:05.775Z,7.02
2023-02-18T10:15:35.046Z,6.92
2023-02-18T10:18:03.655Z,6.76
2023-02-18T10:20:33.335Z,6.68
2023-02-18T10:23:06.021Z,6.71
2023-02-18T10:25:45.327Z,6.63
2023-02-18T10:28:13.519Z,6.56
2023-02-18T10:30:43.887Z,6.46
2023-02-18T10:33:28.952Z,6.43
2023-02-18T10:36:06.337Z,6.24
2023-02-18T10:38:46.840Z,6.01
2023-02-18T10:41:23.719Z,5.90
2023-02-18T10:43:58.733Z,5.76
2023-02-18T10:46:35.286Z,5.74
2023-02-18T10:49:26.109Z,5.66
2023-02-18T10:51:57.421Z,5.46
2023-02-18T10:54:29.483Z,5.36
2023-02-18T10:57:00.750Z,5.30
2023-02-18T10:59:33.965Z,5.34
2023-02-18T11:02:05.067Z,5.40
2023-02-18T11:04:38.207Z,5.38
2023-02-18T11:07:09.217Z,5.27
2023-02-18T11:09:45.719Z,5.20
2023-02-18T11:12:18.618Z,5.18
2023-02-18T11:14:48.167Z,5.25
2023-02-18T11:17:22.564Z,5.26
2023-02-18T11:19:55.855Z,5.24
2023-02-18T11:22:25.549Z,5.30
2023-02-18T11:25:00.015Z,5.12
2023-02-18T11:27:32.810Z,5.13
2023-02-18T11:30:04.958Z,5.01
2023-02-18T11:32:37.096Z,4.97
2023-02-18T11:35:06.326Z,5.05
2023-02-18T11:37:36.660Z,4.98
2023-02-18T11:40:06.966Z,4.89
2023-02-18T11:42:34.934Z,4.92
2023-02-18T11:45:05.396Z,4.94
2023-02-18T11:47:36.089Z,4.83
2023-02-18T11:50:17.087Z,4.71
2023-02-18T11:52:46.412Z,4.65
2023-02-18T11:55:18.986Z,4.50
2023-02-18T11:57:51.088Z,4.43
2023-02-18T12:00:31.235Z,4.33
2023-02-18T12:03:01.598Z,4.35
2023-02-18T12:05:30.525Z,4.34
2023-02-18T12:08:00.772Z,4.36
2023-02-18T12:10:33.883Z,4.27
2023-02-18T12:13:06.470Z,4.11
2023-02-18T12:15:53.561Z,4.10
2023-02-18T12:18:42.703Z,3.94
2023-02-18T12:21:29.653Z,4.13
2023-02-18T12:24:04.787Z,4.20
2023-02-18T12:26:40.722Z,4.23
2023-02-18T12:29:35.823Z,4.17
2023-02-18T12:32:19.635Z,4.11
2023-02-18T12:34:58.378Z,4.09
2023-02-18T12:37:48.383Z,4.08
2023-02-18T12:40:34.345Z,4.16
2023-02-18T12:43:11.771Z,3.85
2023-02-18T12:45:57.862Z,3.85
2023-02-18T12:48:38.342Z,3.79
2023-02-18T12:51:23.660Z,3.80
2023-02-18T12:54:10.172Z,3.84
2023-02-18T12:56:51.867Z,3.82
2023-02-18T12:59:43.644Z,3.85
2023-02-18T13:02:31.260Z,3.72
2023-02-18T13:05:08.456Z,3.79
2023-02-18T13:08:00.850Z,3.84
2023-02-18T13:10:44.069Z,3.85
2023-02-18T13:13:15.657Z,3.87
2023-02-18T13:15:48.842Z,3.97
2023-02-18T13:18:21.326Z,4.16
2023-02-18T13:20:51.975Z,4.43
2023-02-18T13:23:22.180Z,4.56
2023-02-18T13:25:58.879Z,4.58
2023-02-18T13:28:32.745Z,4.88
2023-02-18T13:31:15.075Z,5.16
2023-02-18T13:33:51.272Z,5.25
2023-02-18T13:36:33.632Z,5.43
2023-02-18T13:39:06.772Z,5.71
2023-02-18T13:41:39.443Z,5.88
2023-02-18T13:44:31.302Z,5.99
2023-02-18T13:47:00.487Z,6.01
2023-02-18T13:49:35.273Z,6.08
2023-02-18T13:52:04.942Z,6.05
2023-02-18T13:54:37.899Z,5.95
2023-02-18T13:57:08.292Z,5.86
2023-02-18T13:59:40.858Z,5.93
2023-02-18T14:02:32.022Z,6.07
2023-02-18T14:05:17.073Z,6.06
2023-02-18T14:07:50.681Z,6.10
2023-02-18T14:10:32.138Z,6.17
2023-02-18T14:13:21.269Z,6.04
2023-02-18T14:15:55.744Z,6.07
2023-02-18T14:18:36.031Z,6.15
2023-02-18T14:21:22.537Z,6.09
2023-02-18T14:24:01.742Z,6.15
2023-02-18T14:26:33.280Z,5.98
2023-02-18T14:29:10.039Z,5.95
2023-02-18T14:31:45.907Z,5.93
2023-02-18T14:34:54.050Z,5.89
2023-02-18T14:37:52.426Z,5.68
2023-02-18T14:40:35.044Z,5.59
2023-02-18T14:43:08.656Z,5.51
2023-02-18T14:46:01.280Z,5.45
2023-02-18T14:48:47.012Z,5.31
2023-02-18T14:51:20.780Z,5.29
2023-02-18T14:53:49.109Z,5.21
2023-02-18T14:56:19.456Z,5.20
2023-02-18T14:58:49.280Z,5.26
2023-02-18T15:01:22.752Z,5.30
2023-02-18T15:03:52.873Z,5.25
2023-02-18T15:06:27.396Z,5.35
2023-02-18T15:08:55.265Z,5.30
2023-02-18T15:11:25.475Z,5.39
2023-02-18T15:13:53.224Z,5.34
2023-02-18T15:16:26.184Z,5.29
2023-02-18T15:18:57.889Z,5.31
2023-02-18T15:21:30.920Z,5.32
2023-02-18T15:24:05.902Z,5.27
2023-02-18T15:26:33.867Z,5.17
2023-02-18T15:29:03.127Z,5.09
2023-02-18T15:31:37.534Z,5.00
2023-02-18T15:34:26.149Z,4.94
2023-02-18T15:36:55.063Z,4.97
2023-02-18T15:39:23.306Z,4.99
2023-02-18T15:41:56.093Z,4.99
2023-02-18T15:44:26.092Z,4.97
2023-02-18T15:46:54.417Z,4.90
2023-02-18T15:49:24.819Z,4.90
2023-02-18T15:52:00.191Z,4.87
2023-02-18T15:54:28.368Z,4.78
2023-02-18T15:57:01.588Z,4.74
2023-02-18T15:59:31.570Z,4.67
2023-02-18T16:02:12.110Z,4.59
2023-02-18T16:04:41.668Z,4.56
2023-02-18T16:07:23.578Z,4.49
2023-02-18T16:09:51.436Z,4.46
2023-02-18T16:12:28.751Z,4.36
2023-02-18T16:14:58.689Z,4.31
2023-02-18T16:17:28.695Z,4.19
2023-02-18T16:20:04.924Z,4.16
2023-02-18T16:22:44.288Z,4.09
2023-02-18T16:25:18.167Z,4.04
2023-02-18T16:27:51.911Z,3.96
2023-02-18T16:30:21.398Z,3.94
2023-02-18T16:32:49.082Z,3.89
2023-02-18T16:35:17.035Z,3.84
2023-02-18T16:37:48.032Z,3.80
2023-02-18T16:40:25.986Z,3.77
2023-02-18T16:42:54.515Z,3.70
2023-02-18T16:45:25.099Z,3.64
2023-02-18T16:47:52.788Z,3.57
2023-02-18T16:50:22.513Z,3.51
2023-02-18T16:52:51.644Z,3.47
2023-02-18T16:55:21.907Z,3.42
2023-02-18T16:57:49.883Z,3.35
2023-02-18T17:00:18.955Z,3.30
2023-02-18T17:02:49.950Z,3.27
2023-02-18T17:05:26.466Z,3.25
2023-02-18T17:07:56.306Z,3.20
2023-02-18T17:10:23.912Z,3.17
2023-02-18T17:12:51.710Z,3.19
2023-02-18T17:15:29.271Z,3.19
2023-02-18T17:17:59.137Z,3.20
2023-02-18T17:20:27.525Z,3.23
2023-02-18T17:22:57.083Z,3.22
2023-02-18T17:25:29.794Z,3.18
2023-02-18T17:27:57.587Z,3.17
2023-02-18T17:30:25.802Z,3.15
2023-02-18T17:32:53.592Z,3.12
2023-02-18T17:35:23.707Z,3.11
2023-02-18T17:37:51.467Z,3.16
2023-02-18T17:40:22.608Z,3.18
2023-02-18T17:42:51.073Z,3.19
2023-02-18T17:45:22.847Z,3.22
2023-02-18T17:47:50.488Z,3.24
2023-02-18T17:50:18.311Z,3.26
2023-02-18T17:52:46.379Z,3.26
2023-02-18T17:55:22.570Z,3.27
2023-02-18T17:57:51.456Z,3.27
2023-02-18T18:00:22.957Z,3.26
2023-02-18T18:02:50.796Z,3.25
2023-02-18T18:05:21.938Z,3.24
2023-02-18T18:07:50.600Z,3.22
2023-02-18T18:10:21.961Z,3.20
2023-02-18T18:12:50.526Z,3.24
2023-02-18T18:15:25.808Z,3.23
2023-02-18T18:17:54.421Z,3.21
2023-02-18T18:20:23.215Z,3.22
2023-02-18T18:22:52.103Z,3.25
2023-02-18T18:25:24.017Z,3.30
2023-02-18T18:27:52.841Z,3.32
2023-02-18T18:30:23.233Z,3.38
2023-02-18T18:32:51.205Z,3.36
2023-02-18T18:35:22.260Z,3.42
2023-02-18T18:37:49.927Z,3.44
2023-02-18T18:40:18.742Z,3.47
2023-02-18T18:42:47.839Z,3.51
2023-02-18T18:45:22.471Z,3.53
2023-02-18T18:47:50.882Z,3.56
2023-02-18T18:50:19.670Z,3.55
2023-02-18T18:52:48.670Z,3.58
2023-02-18T18:55:32.333Z,3.60
2023-02-18T18:58:01.803Z,3.60
2023-02-18T19:00:32.065Z,3.59
2023-02-18T19:03:00.210Z,3.62
2023-02-18T19:05:30.793Z,3.61
2023-02-18T19:07:59.292Z,3.62
2023-02-18T19:10:29.876Z,3.63
2023-02-18T19:13:03.965Z,3.61
2023-02-18T19:15:31.630Z,3.58
2023-02-18T19:17:59.733Z,3.55
2023-02-18T19:20:30.119Z,3.54
2023-02-18T19:22:57.873Z,3.52
2023-02-18T19:25:26.027Z,3.47
2023-02-18T19:27:53.712Z,3.47
2023-02-18T19:30:24.761Z,3.49
2023-02-18T19:32:53.465Z,3.50
2023-02-18T19:35:21.801Z,3.50
2023-02-18T19:37:49.455Z,3.53
2023-02-18T19:40:19.588Z,3.52
2023-02-18T19:42:47.998Z,3.51
2023-02-18T19:45:17.034Z,3.55
2023-02-18T19:47:46.380Z,3.57
2023-02-18T19:50:17.667Z,3.61
2023-02-18T19:52:45.306Z,3.62
2023-02-18T19:55:12.978Z,3.65
2023-02-18T19:57:40.599Z,3.66
2023-02-18T20:00:09.764Z,3.60
2023-02-18T20:02:38.476Z,3.61
2023-02-18T20:05:08.507Z,3.59
2023-02-18T20:07:37.108Z,3.57
2023-02-18T20:10:05.152Z,3.59
2023-02-18T20:12:34.107Z,3.58
2023-02-18T20:15:02.815Z,3.62
2023-02-18T20:17:30.456Z,3.60
2023-02-18T20:19:58.042Z,3.61
2023-02-18T20:22:27.105Z,3.63
2023-02-18T20:24:55.061Z,3.65
2023-02-18T20:27:23.285Z,3.67
2023-02-18T20:29:52.073Z,3.70
2023-02-18T20:32:19.719Z,3.69
2023-02-18T20:34:47.601Z,3.70
2023-02-18T20:37:15.298Z,3.68
2023-02-18T20:39:44.513Z,3.68
2023-02-18T20:42:16.556Z,3.68
2023-02-18T20:44:44.676Z,3.71
2023-02-18T20:47:13.407Z,3.70
2023-02-18T20:49:41.453Z,3.71
2023-02-18T20:52:10.790Z,3.71
2023-02-18T20:54:38.472Z,3.71
2023-02-18T20:57:08.833Z,3.69
2023-02-18T20:59:36.488Z,3.67
2023-02-18T21:02:04.961Z,3.65
2023-02-18T21:04:33.045Z,3.65
2023-02-18T21:07:00.611Z,3.62
2023-02-18T21:09:28.159Z,3.61
2023-02-18T21:11:55.775Z,3.59
2023-02-18T21:14:25.031Z,3.57
2023-02-18T21:16:52.722Z,3.53
2023-02-18T21:19:20.837Z,3.54
2023-02-18T21:21:48.639Z,3.52
2023-02-18T21:24:16.279Z,3.47
2023-02-18T21:26:43.863Z,3.43
2023-02-18T21:29:11.510Z,3.39
2023-02-18T21:31:42.503Z,3.35
2023-02-18T21:34:14.096Z,3.30
2023-02-18T21:36:42.301Z,3.27
2023-02-18T21:39:11.350Z,3.25
2023-02-18T21:41:41.316Z,3.23
2023-02-18T21:44:09.463Z,3.23
2023-02-18T21:46:38.093Z,3.21
2023-02-18T21:49:09.450Z,3.21
2023-02-18T21:52:00.266Z,3.21
2023-02-18T21:54:29.321Z,3.18
2023-02-18T21:56:57.865Z,3.18
2023-02-18T21:59:27.753Z,3.17
2023-02-18T22:01:56.110Z,3.17
2023-02-18T22:04:25.267Z,3.17
2023-02-18T22:06:53.270Z,3.16
2023-02-18T22:09:20.859Z,3.15
2023-02-18T22:11:48.644Z,3.15
2023-02-18T22:14:16.952Z,3.13
2023-02-18T22:16:44.712Z,3.13
2023-02-18T22:19:13.930Z,3.14
2023-02-18T22:21:43.541Z,3.15
2023-02-18T22:24:13.528Z,3.14
2023-02-18T22:26:43.805Z,3.16
2023-02-18T22:29:12.107Z,3.17
2023-02-18T22:31:39.948Z,3.19
2023-02-18T22:34:07.894Z,3.21
2023-02-18T22:36:35.870Z,3.22
2023-02-18T22:39:05.631Z,3.23
2023-02-18T22:41:34.409Z,3.25
2023-02-18T22:44:04.038Z,3.23
2023-02-18T22:46:33.628Z,3.20
2023-02-18T22:49:02.328Z,3.14
2023-02-18T22:51:31.734Z,3.10
2023-02-18T22:54:01.072Z,3.07
2023-02-18T22:56:31.354Z,3.05
2023-02-18T22:59:00.050Z,3.04
2023-02-18T23:01:30.447Z,3.01
2023-02-18T23:03:59.490Z,2.99
2023-02-18T23:06:27.089Z,2.98
2023-02-18T23:08:55.379Z,2.96
2023-02-18T23:11:23.305Z,2.95
2023-02-18T23:14:06.238Z,2.95
2023-02-18T23:16:54.363Z,2.96
2023-02-18T23:19:22.014Z,2.95
2023-02-18T23:21:50.068Z,2.94
2023-02-18T23:24:18.153Z,2.94
2023-02-18T23:26:45.798Z,2.92
2023-02-18T23:29:14.807Z,2.90
2023-02-18T23:31:42.676Z,2.89
2023-02-18T23:34:14.989Z,2.88
2023-02-18T23:36:43.160Z,2.86
2023-02-18T23:39:13.424Z,2.86
2023-02-18T23:41:41.063Z,2.84
2023-02-18T23:44:11.684Z,2.86
2023-02-18T23:46:41.278Z,2.85
2023-02-18T23:49:08.927Z,2.85
2023-02-18T23:51:36.541Z,2.86
2023-02-18T23:54:04.790Z,2.86
2023-02-18T23:56:33.002Z,2.88
2023-02-18T23:59:02.627Z,2.87
